createdAt,value
2022-09-06T00:01:17.121Z,14.67
2022-09-06T00:03:46.788Z,12.33
2022-09-06T00:06:19.977Z,11.33
2022-09-06T00:08:49.904Z,14.67
2022-09-06T00:11:19.081Z,13.50
2022-09-06T00:13:48.101Z,13.50
2022-09-06T00:16:26.325Z,15.50
2022-09-06T00:18:55.948Z,17.00
2022-09-06T00:21:30.115Z,17.50
2022-09-06T00:23:58.894Z,16.00
2022-09-06T00:26:27.502Z,13.00
2022-09-06T00:28:55.200Z,15.00
2022-09-06T00:31:26.863Z,16.00
2022-09-06T00:33:55.815Z,14.67
2022-09-06T00:36:24.214Z,16.00
2022-09-06T00:38:51.969Z,18.00
2022-09-06T00:41:20.926Z,19.33
2022-09-06T00:43:48.757Z,18.00
2022-09-06T00:46:26.639Z,16.00
2022-09-06T00:49:33.239Z,16.67
2022-09-06T00:52:20.643Z,14.50
2022-09-06T00:54:51.191Z,16.33
2022-09-06T00:57:20.403Z,17.67
2022-09-06T00:59:48.968Z,15.50
2022-09-06T01:02:16.838Z,20.00
2022-09-06T01:04:48.326Z,19.00
2022-09-06T01:08:08.466Z,17.00
2022-09-06T01:11:05.222Z,15.67
2022-09-06T01:14:05.002Z,18.67
2022-09-06T01:17:21.599Z,16.33
2022-09-06T01:20:31.857Z,15.00
2022-09-06T01:23:58.314Z,13.00
2022-09-06T01:27:29.093Z,14.33
2022-09-06T01:30:09.620Z,16.00
2022-09-06T01:32:56.996Z,17.33
2022-09-06T01:36:14.143Z,15.00
2022-09-06T01:38:42.022Z,18.50
2022-09-06T01:41:11.464Z,17.33
2022-09-06T01:43:47.712Z,17.33
2022-09-06T01:46:42.190Z,14.67
2022-09-06T01:49:37.683Z,22.00
2022-09-06T01:52:34.773Z,17.00
2022-09-06T01:55:28.346Z,17.00
2022-09-06T01:58:39.666Z,16.00
2022-09-06T02:01:46.643Z,17.33
2022-09-06T02:04:56.234Z,17.00
2022-09-06T02:07:30.207Z,18.00
2022-09-06T02:10:32.351Z,15.67
2022-09-06T02:13:03.064Z,14.67
2022-09-06T02:15:41.665Z,14.00
2022-09-06T02:18:25.028Z,14.00
2022-09-06T02:20:58.760Z,17.00
2022-09-06T02:23:34.306Z,14.50
2022-09-06T02:26:28.516Z,19.00
2022-09-06T02:28:58.281Z,17.33
2022-09-06T02:31:35.219Z,15.33
2022-09-06T02:34:03.753Z,14.50
2022-09-06T02:36:35.381Z,17.00
2022-09-06T02:39:05.414Z,15.00
2022-09-06T02:41:34.982Z,14.00
2022-09-06T02:44:04.011Z,17.33
2022-09-06T02:46:31.792Z,18.00
2022-09-06T02:49:00.498Z,16.67
2022-09-06T02:51:29.111Z,17.33
2022-09-06T02:53:57.810Z,17.00
2022-09-06T02:56:26.425Z,16.00
2022-09-06T02:58:55.722Z,17.50
2022-09-06T03:01:24.406Z,17.00
2022-09-06T03:03:53.127Z,15.00
2022-09-06T03:06:21.955Z,16.67
2022-09-06T03:08:51.604Z,16.33
2022-09-06T03:11:20.261Z,15.67
2022-09-06T03:13:51.168Z,14.67
2022-09-06T03:16:20.976Z,18.00
2022-09-06T03:18:50.010Z,18.00
2022-09-06T03:21:18.652Z,15.00
2022-09-06T03:23:47.183Z,15.33
2022-09-06T03:26:15.814Z,15.00
2022-09-06T03:28:44.413Z,18.00
2022-09-06T03:31:13.370Z,17.00
2022-09-06T03:33:41.963Z,18.00
2022-09-06T03:36:10.713Z,18.33
2022-09-06T03:38:39.288Z,14.67
2022-09-06T03:41:07.890Z,13.00
2022-09-06T03:43:36.764Z,16.67
2022-09-06T03:46:05.650Z,17.00
2022-09-06T03:48:34.327Z,18.00
2022-09-06T03:51:02.990Z,15.33
2022-09-06T03:53:31.684Z,16.00
2022-09-06T03:56:00.470Z,14.67
2022-09-06T03:58:33.788Z,16.00
2022-09-06T04:01:12.205Z,16.00
2022-09-06T04:03:41.661Z,16.50
2022-09-06T04:06:10.937Z,18.67
2022-09-06T04:08:40.368Z,14.33
2022-09-06T04:11:09.006Z,18.00
2022-09-06T04:13:38.261Z,13.67
2022-09-06T04:16:07.817Z,14.00
2022-09-06T04:18:36.700Z,14.33
2022-09-06T04:21:05.023Z,17.00
2022-09-06T04:23:35.367Z,15.50
2022-09-06T04:26:07.100Z,15.50
2022-09-06T04:28:34.941Z,15.00
2022-09-06T04:31:05.356Z,15.50
2022-09-06T04:33:37.279Z,15.33
2022-09-06T04:36:10.205Z,18.50
2022-09-06T04:38:45.057Z,16.67
2022-09-06T04:41:19.020Z,20.00
2022-09-06T04:43:47.934Z,17.00
2022-09-06T04:46:27.502Z,18.00
2022-09-06T04:48:57.801Z,16.33
2022-09-06T04:51:26.754Z,20.50
2022-09-06T04:53:55.315Z,13.00
2022-09-06T04:56:26.505Z,15.33
2022-09-06T04:58:56.401Z,15.00
2022-09-06T05:01:26.583Z,14.00
2022-09-06T05:03:56.900Z,18.00
2022-09-06T05:06:26.028Z,14.00
2022-09-06T05:08:54.731Z,15.00
2022-09-06T05:11:23.549Z,18.00
2022-09-06T05:13:52.206Z,13.33
2022-09-06T05:16:20.820Z,16.33
2022-09-06T05:18:49.471Z,16.50
2022-09-06T05:21:18.195Z,15.00
2022-09-06T05:23:46.926Z,15.50
2022-09-06T05:26:15.601Z,16.50
2022-09-06T05:28:43.427Z,18.00
2022-09-06T05:33:59.970Z,19.00
2022-09-06T05:36:30.766Z,19.00
2022-09-06T05:39:00.050Z,16.50
2022-09-06T05:41:28.870Z,25.50
2022-09-06T05:43:57.489Z,15.33
2022-09-06T05:46:26.683Z,16.50
2022-09-06T05:49:07.916Z,14.00
2022-09-06T05:51:36.546Z,19.00
2022-09-06T05:54:05.448Z,16.67
2022-09-06T05:56:34.151Z,15.00
2022-09-06T05:59:01.936Z,17.50
2022-09-06T06:01:31.644Z,15.67
2022-09-06T06:04:03.681Z,11.67
2022-09-06T06:06:35.058Z,14.50
2022-09-06T06:09:03.733Z,15.00
2022-09-06T06:11:32.835Z,14.33
2022-09-06T06:14:00.825Z,17.00
2022-09-06T06:16:29.812Z,14.67
2022-09-06T06:18:58.650Z,16.00
2022-09-06T06:21:31.273Z,18.00
2022-09-06T06:24:05.255Z,15.50
2022-09-06T06:26:37.057Z,15.33
2022-09-06T06:29:09.632Z,14.50
2022-09-06T06:31:39.651Z,13.00
2022-09-06T06:34:08.757Z,15.00
2022-09-06T06:36:38.427Z,12.33
2022-09-06T06:39:08.832Z,18.00
2022-09-06T06:41:37.866Z,14.33
2022-09-06T06:44:07.293Z,15.33
2022-09-06T06:46:38.592Z,14.67
2022-09-06T06:49:07.261Z,15.67
2022-09-06T06:51:37.417Z,14.33
2022-09-06T06:54:06.735Z,11.67
2022-09-06T06:56:40.991Z,13.67
2022-09-06T06:59:09.584Z,16.00
2022-09-06T07:01:38.797Z,14.67
2022-09-06T07:04:10.022Z,16.00
2022-09-06T07:12:33.331Z,12.33
2022-09-06T07:15:01.924Z,16.33
2022-09-06T07:17:30.936Z,15.67
2022-09-06T07:20:15.282Z,17.00
2022-09-06T07:22:44.310Z,13.67
2022-09-06T07:25:21.014Z,12.67
2022-09-06T07:27:57.145Z,17.33
2022-09-06T07:30:25.824Z,15.33
2022-09-06T07:32:54.504Z,13.67
2022-09-06T07:35:23.079Z,14.00
2022-09-06T07:38:01.331Z,13.00
2022-09-06T07:40:31.681Z,10.00
2022-09-06T07:43:00.885Z,13.00
2022-09-06T07:45:29.331Z,13.00
2022-09-06T07:47:59.845Z,11.33
2022-09-06T07:50:48.011Z,12.00
2022-09-06T07:53:29.250Z,12.00
2022-09-06T07:56:01.352Z,8.67
2022-09-06T07:58:32.464Z,13.67
2022-09-06T08:01:30.445Z,13.33
2022-09-06T08:04:02.543Z,13.00
2022-09-06T08:09:24.227Z,11.33
2022-09-06T08:11:52.965Z,10.67
2022-09-06T08:14:21.508Z,9.00
2022-09-06T08:16:50.613Z,10.67
2022-09-06T08:19:19.075Z,11.67
2022-09-06T08:21:47.538Z,11.00
2022-09-06T08:24:16.285Z,12.67
2022-09-06T08:26:44.879Z,11.33
2022-09-06T08:29:14.498Z,10.00
2022-09-06T08:31:45.325Z,10.67
2022-09-06T08:34:15.335Z,12.00
2022-09-06T08:36:45.585Z,9.00
2022-09-06T08:39:14.100Z,13.67
2022-09-06T08:42:05.748Z,10.33
2022-09-06T08:44:55.104Z,9.33
2022-09-06T08:47:24.954Z,11.00
2022-09-06T08:50:01.885Z,9.33
2022-09-06T08:53:16.092Z,9.67
2022-09-06T08:56:28.828Z,16.00
2022-09-06T08:59:07.774Z,9.67
2022-09-06T09:02:19.255Z,12.33
2022-09-06T09:05:01.853Z,10.00
2022-09-06T09:07:46.159Z,11.67
2022-09-06T09:10:35.040Z,13.00
2022-09-06T09:13:09.727Z,14.33
2022-09-06T09:15:40.447Z,13.67
2022-09-06T09:18:09.489Z,11.67
2022-09-06T09:20:39.734Z,11.33
2022-09-06T09:23:08.160Z,9.00
2022-09-06T09:25:39.429Z,9.00
2022-09-06T09:28:18.484Z,12.67
2022-09-06T09:30:56.603Z,12.00
2022-09-06T09:33:30.185Z,13.00
2022-09-06T09:36:14.104Z,11.33
2022-09-06T09:38:51.875Z,11.00
2022-09-06T09:41:38.662Z,12.67
2022-09-06T09:44:17.803Z,10.00
2022-09-06T09:46:46.420Z,10.67
2022-09-06T09:49:27.725Z,12.00
2022-09-06T09:52:15.154Z,10.33
2022-09-06T09:54:47.791Z,11.33
2022-09-06T09:57:20.030Z,11.00
2022-09-06T10:00:06.515Z,9.33
2022-09-06T10:02:39.328Z,6.00
2022-09-06T10:05:13.205Z,11.33
2022-09-06T10:07:55.161Z,12.33
2022-09-06T10:10:36.269Z,11.67
2022-09-06T10:13:19.561Z,9.33
2022-09-06T10:15:51.096Z,10.67
2022-09-06T10:18:44.613Z,10.67
2022-09-06T10:21:22.446Z,12.67
2022-09-06T10:24:31.722Z,13.33
2022-09-06T10:27:02.628Z,10.67
2022-09-06T10:30:07.238Z,10.67
2022-09-06T10:32:49.616Z,10.00
2022-09-06T10:35:37.588Z,10.00
2022-09-06T10:38:51.454Z,9.67
2022-09-06T10:41:57.252Z,13.00
2022-09-06T10:45:20.570Z,9.00
2022-09-06T10:48:23.889Z,9.00
2022-09-06T10:51:01.874Z,8.80
2022-09-06T10:54:09.707Z,10.00
2022-09-06T10:56:55.479Z,8.33
2022-09-06T10:59:42.317Z,12.33
2022-09-06T11:02:48.706Z,11.67
2022-09-06T11:05:41.271Z,11.00
2022-09-06T11:12:14.867Z,8.00
2022-09-06T11:14:43.516Z,10.00
2022-09-06T11:17:48.092Z,10.33
2022-09-06T11:20:47.116Z,11.00
2022-09-06T11:23:51.088Z,8.00
2022-09-06T11:26:35.315Z,10.00
2022-09-06T11:29:27.834Z,9.67
2022-09-06T11:32:20.506Z,9.00
2022-09-06T11:34:57.851Z,9.67
2022-09-06T11:37:36.374Z,9.00
2022-09-06T11:43:49.531Z,10.67
2022-09-06T11:46:36.225Z,8.00
2022-09-06T11:49:09.384Z,9.00
2022-09-06T11:51:45.504Z,11.00
2022-09-06T11:54:24.512Z,8.00
2022-09-06T11:57:12.659Z,11.00
2022-09-06T11:59:47.758Z,10.00
2022-09-06T12:02:35.845Z,8.00
2022-09-06T12:05:07.476Z,9.67
2022-09-06T12:07:39.319Z,9.33
2022-09-06T12:11:04.980Z,9.33
2022-09-06T12:13:46.250Z,9.33
2022-09-06T12:16:17.708Z,9.00
2022-09-06T12:18:49.172Z,10.00
2022-09-06T12:21:52.516Z,7.33
2022-09-06T12:24:47.446Z,9.67
2022-09-06T12:27:22.812Z,12.00
2022-09-06T12:30:11.544Z,8.33
2022-09-06T12:32:52.260Z,9.00
2022-09-06T12:38:25.974Z,10.00
2022-09-06T12:40:59.200Z,9.67
2022-09-06T12:43:28.451Z,13.00
2022-09-06T12:45:56.992Z,10.33
2022-09-06T12:48:41.393Z,9.00
2022-09-06T12:51:20.367Z,8.00
2022-09-06T12:54:02.022Z,8.33
2022-09-06T12:56:34.502Z,8.67
2022-09-06T12:59:32.589Z,7.67
2022-09-06T13:02:20.928Z,11.00
2022-09-06T13:05:06.857Z,10.00
2022-09-06T13:07:48.148Z,10.67
2022-09-06T13:10:27.348Z,7.00
2022-09-06T13:12:58.913Z,12.00
2022-09-06T13:15:31.393Z,8.67
2022-09-06T13:18:27.249Z,11.67
2022-09-06T13:21:14.282Z,11.00
2022-09-06T13:23:53.658Z,10.33
2022-09-06T13:26:40.230Z,9.67
2022-09-06T13:29:17.678Z,18.33
2022-09-06T13:31:52.639Z,9.00
2022-09-06T13:34:34.349Z,14.50
2022-09-06T13:37:09.398Z,8.33
2022-09-06T13:39:46.527Z,9.00
2022-09-06T13:42:36.783Z,10.00
2022-09-06T13:45:29.439Z,9.67
2022-09-06T13:48:13.133Z,8.67
2022-09-06T13:50:46.275Z,8.33
2022-09-06T13:53:20.797Z,8.67
2022-09-06T13:55:49.256Z,9.00
2022-09-06T13:58:17.802Z,10.33
2022-09-06T14:00:47.297Z,11.00
2022-09-06T14:03:32.985Z,9.00
2022-09-06T14:06:01.971Z,11.67
2022-09-06T14:08:49.697Z,9.67
2022-09-06T14:11:20.757Z,10.00
2022-09-06T14:13:49.426Z,12.33
2022-09-06T14:16:18.063Z,12.00
2022-09-06T14:18:46.810Z,9.67
2022-09-06T14:21:15.271Z,8.33
2022-09-06T14:23:44.239Z,12.33
2022-09-06T14:26:13.566Z,4.00
2022-09-06T14:28:42.010Z,10.00
2022-09-06T14:31:19.372Z,7.33
2022-09-06T14:33:48.549Z,7.67
2022-09-06T14:36:20.932Z,8.67
2022-09-06T14:38:51.109Z,8.67
2022-09-06T14:41:21.223Z,8.33
2022-09-06T14:43:55.088Z,9.00
2022-09-06T14:46:27.323Z,12.00
2022-09-06T14:49:07.914Z,9.00
2022-09-06T14:51:38.730Z,10.33
2022-09-06T14:54:12.903Z,9.00
2022-09-06T14:56:44.008Z,12.33
2022-09-06T14:59:13.401Z,8.67
2022-09-06T15:01:42.316Z,11.00
2022-09-06T15:04:12.223Z,15.67
2022-09-06T15:06:45.064Z,10.00
2022-09-06T15:09:16.257Z,10.00
2022-09-06T15:11:50.777Z,14.00
2022-09-06T15:14:27.193Z,10.00
2022-09-06T15:16:59.605Z,9.00
2022-09-06T15:19:30.477Z,10.33
2022-09-06T15:21:59.157Z,11.00
2022-09-06T15:24:28.363Z,10.33
2022-09-06T15:26:57.335Z,10.33
2022-09-06T15:29:27.446Z,11.00
2022-09-06T15:31:55.971Z,8.00
2022-09-06T15:34:27.095Z,10.00
2022-09-06T15:36:56.797Z,10.00
2022-09-06T15:39:25.346Z,10.33
2022-09-06T15:41:53.944Z,11.00
2022-09-06T15:44:22.475Z,11.00
2022-09-06T15:47:00.435Z,10.67
2022-09-06T15:49:33.209Z,11.67
2022-09-06T15:52:03.725Z,11.33
2022-09-06T15:54:50.470Z,9.67
2022-09-06T15:57:19.241Z,9.00
2022-09-06T15:59:47.998Z,10.33
2022-09-06T16:02:16.842Z,16.00
2022-09-06T16:04:47.023Z,9.33
2022-09-06T16:07:15.520Z,10.00
2022-09-06T16:09:44.142Z,8.67
2022-09-06T16:12:12.682Z,10.00
2022-09-06T16:14:41.120Z,10.00
2022-09-06T16:17:11.964Z,10.33
2022-09-06T16:19:40.615Z,11.00
2022-09-06T16:22:09.087Z,12.33
2022-09-06T16:24:37.861Z,9.00
2022-09-06T16:27:06.340Z,10.50
2022-09-06T16:29:35.493Z,10.67
2022-09-06T16:32:04.363Z,10.33
2022-09-06T16:34:32.880Z,12.00
2022-09-06T16:37:07.919Z,13.33
2022-09-06T16:39:37.858Z,15.00
2022-09-06T16:42:07.339Z,17.50
2022-09-06T16:44:35.986Z,16.50
2022-09-06T16:47:05.271Z,17.00
2022-09-06T16:49:33.952Z,20.00
2022-09-06T16:52:02.929Z,18.00
2022-09-06T16:54:31.736Z,20.00
2022-09-06T16:57:02.751Z,15.50
2022-09-06T16:59:31.380Z,17.00
2022-09-06T17:02:00.184Z,17.33
2022-09-06T17:04:28.978Z,19.33
2022-09-06T17:06:58.039Z,16.33
2022-09-06T17:09:26.754Z,21.67
2022-09-06T17:11:55.341Z,16.00
2022-09-06T17:14:24.936Z,24.67
2022-09-06T17:17:07.250Z,29.33
2022-09-06T17:19:39.568Z,18.00
2022-09-06T17:22:12.783Z,23.00
2022-09-06T17:24:42.158Z,18.33
2022-09-06T17:27:11.463Z,26.00
2022-09-06T17:29:40.290Z,22.33
2022-09-06T17:32:10.504Z,29.00
2022-09-06T17:34:42.490Z,22.67
2022-09-06T17:37:11.497Z,28.33
2022-09-06T17:39:40.549Z,30.67
2022-09-06T17:42:09.715Z,29.00
2022-09-06T17:44:38.479Z,31.33
2022-09-06T17:47:15.057Z,27.00
2022-09-06T17:49:44.257Z,25.67
2022-09-06T17:52:13.856Z,28.00
2022-09-06T17:54:44.100Z,25.67
2022-09-06T17:57:12.725Z,24.00
2022-09-06T17:59:41.411Z,24.67
2022-09-06T18:02:10.598Z,19.67
2022-09-06T18:04:39.358Z,24.33
2022-09-06T18:07:08.089Z,25.67
2022-09-06T18:09:37.402Z,26.00
2022-09-06T18:12:07.078Z,25.00
2022-09-06T18:14:36.964Z,25.67
2022-09-06T18:17:08.670Z,29.67
2022-09-06T18:19:38.373Z,27.67
2022-09-06T18:22:07.210Z,21.00
2022-09-06T18:24:35.871Z,25.00
2022-09-06T18:27:05.799Z,25.33
2022-09-06T18:29:34.765Z,22.00
2022-09-06T18:32:04.596Z,25.67
2022-09-06T18:34:33.386Z,28.00
2022-09-06T18:37:02.433Z,24.67
2022-09-06T18:39:31.100Z,25.33
2022-09-06T18:42:00.219Z,25.67
2022-09-06T18:44:34.701Z,32.00
2022-09-06T18:47:08.960Z,26.67
2022-09-06T18:49:43.222Z,23.33
2022-09-06T18:52:12.828Z,29.33
2022-09-06T18:54:43.760Z,29.67
2022-09-06T18:57:13.171Z,29.67
2022-09-06T18:59:41.918Z,32.00
2022-09-06T19:02:10.851Z,28.67
2022-09-06T19:04:39.900Z,29.33
2022-09-06T19:07:08.613Z,31.00
2022-09-06T19:09:37.463Z,28.33
2022-09-06T19:12:06.314Z,29.00
2022-09-06T19:14:35.009Z,30.00
2022-09-06T19:17:04.056Z,28.00
2022-09-06T19:19:32.818Z,26.33
2022-09-06T19:22:02.057Z,26.00
2022-09-06T19:24:30.869Z,26.00
2022-09-06T19:26:59.592Z,25.67
2022-09-06T19:29:28.738Z,27.33
2022-09-06T19:31:57.698Z,28.00
2022-09-06T19:34:26.805Z,31.00
2022-09-06T19:36:57.345Z,29.67
2022-09-06T19:39:33.640Z,30.67
2022-09-06T19:42:06.042Z,26.67
2022-09-06T19:44:34.860Z,29.00
2022-09-06T19:47:03.807Z,27.00
2022-09-06T19:49:32.541Z,30.00
2022-09-06T19:52:01.752Z,33.67
2022-09-06T19:54:30.535Z,30.33
2022-09-06T19:56:59.245Z,30.67
2022-09-06T19:59:28.857Z,29.33
2022-09-06T20:01:57.705Z,26.67
2022-09-06T20:04:28.330Z,28.67
2022-09-06T20:06:57.734Z,27.67
2022-09-06T20:09:26.522Z,29.67
2022-09-06T20:11:55.260Z,28.67
2022-09-06T20:14:25.125Z,29.00
2022-09-06T20:16:53.811Z,25.00
2022-09-06T20:19:22.509Z,30.00
2022-09-06T20:21:51.195Z,28.33
2022-09-06T20:24:20.049Z,31.00
2022-09-06T20:26:53.122Z,28.33
2022-09-06T20:29:21.784Z,27.00
2022-09-06T20:31:50.485Z,27.33
2022-09-06T20:34:19.488Z,30.00
2022-09-06T20:36:48.102Z,33.67
2022-09-06T20:39:16.943Z,32.00
2022-09-06T20:41:46.741Z,33.00
2022-09-06T20:44:15.562Z,30.33
2022-09-06T20:46:44.311Z,34.33
2022-09-06T20:49:15.174Z,30.33
2022-09-06T20:51:43.840Z,31.00
2022-09-06T20:54:14.066Z,31.33
2022-09-06T20:56:43.244Z,35.67
2022-09-06T20:59:14.254Z,30.00
2022-09-06T21:01:46.395Z,33.00
2022-09-06T21:04:17.874Z,36.00
2022-09-06T21:06:46.817Z,33.33
2022-09-06T21:09:16.389Z,32.33
2022-09-06T21:11:46.778Z,38.67
2022-09-06T21:14:16.307Z,33.33
2022-09-06T21:16:45.476Z,38.67
2022-09-06T21:19:14.440Z,33.00
2022-09-06T21:21:47.911Z,34.00
2022-09-06T21:24:16.614Z,33.67
2022-09-06T21:26:45.504Z,36.33
2022-09-06T21:29:14.312Z,36.00
2022-09-06T21:31:45.362Z,31.33
2022-09-06T21:34:16.890Z,30.33
2022-09-06T21:36:46.345Z,36.33
2022-09-06T21:39:15.481Z,33.33
2022-09-06T21:41:44.790Z,33.67
2022-09-06T21:44:14.109Z,35.67
2022-09-06T21:46:43.150Z,29.67
2022-09-06T21:49:14.571Z,25.67
2022-09-06T21:51:44.007Z,26.67
2022-09-06T21:54:15.426Z,27.00
2022-09-06T21:56:44.158Z,33.33
2022-09-06T21:59:13.088Z,31.00
2022-09-06T22:01:44.973Z,26.33
2022-09-06T22:04:14.798Z,29.00
2022-09-06T22:06:43.514Z,26.00
2022-09-06T22:09:14.101Z,28.33
2022-09-06T22:11:45.018Z,32.67
2022-09-06T22:14:15.735Z,32.00
2022-09-06T22:16:45.261Z,29.33
2022-09-06T22:19:14.292Z,33.00
2022-09-06T22:21:42.975Z,33.33
2022-09-06T22:24:13.051Z,32.67
2022-09-06T22:26:42.491Z,34.00
2022-09-06T22:29:16.778Z,36.33
2022-09-06T22:31:46.285Z,35.00
2022-09-06T22:34:15.902Z,38.67
2022-09-06T22:36:44.644Z,40.50
2022-09-06T22:39:13.445Z,36.67
2022-09-06T22:41:42.199Z,42.67
2022-09-06T22:44:10.903Z,40.67
2022-09-06T22:46:39.733Z,44.67
2022-09-06T22:49:09.325Z,39.33
2022-09-06T22:51:38.053Z,44.00
2022-09-06T22:54:07.089Z,43.33
2022-09-06T22:56:36.817Z,42.00
2022-09-06T22:59:05.978Z,48.50
2022-09-06T23:01:39.399Z,41.33
2022-09-06T23:04:10.101Z,44.33
2022-09-06T23:06:38.872Z,41.00
2022-09-06T23:09:07.974Z,44.33
2022-09-06T23:11:37.513Z,44.67
2022-09-06T23:14:06.542Z,41.33
2022-09-06T23:16:36.073Z,47.67
2022-09-06T23:19:04.852Z,49.67
2022-09-06T23:21:34.320Z,45.00
2022-09-06T23:24:03.238Z,46.67
2022-09-06T23:26:33.487Z,49.50
2022-09-06T23:29:03.172Z,42.67
2022-09-06T23:31:32.795Z,40.67
2022-09-06T23:34:03.350Z,48.67
2022-09-06T23:36:33.198Z,43.33
2022-09-06T23:39:03.008Z,46.67
2022-09-06T23:41:32.009Z,50.00
2022-09-06T23:44:01.989Z,46.33
2022-09-06T23:46:31.328Z,48.67
2022-09-06T23:49:00.896Z,49.00
2022-09-06T23:51:29.684Z,46.67
2022-09-06T23:53:59.254Z,45.33
2022-09-06T23:56:27.976Z,50.00
2022-09-06T23:58:56.924Z,47.00
